Grenville, Canada
Current Conditions -  °F | °C
As of 9:00 AM on Thursday 27 Nov 2014 (Local Time) from CYMX Reporting Station
Scattered Clouds Scattered Clouds  
Wind Chill: 21°   Ceiling: Unl
Heat Index: 27°   Visibility: 45mi
Dew Point: 16°   Wind: 5mph
Humidity: 64%   Direction: 10°N
Pressure: 30.05"   Gusts: NA
Location:  45.63°N, 74.6°W
Report Text: CYMX 271400Z 01004KT 45SM FEW035 SCT250 M03/M09 A3005 RMK SC1CI2 SLP179
Loading
Personal Weather Stations






























Interactive Weather Map New forecast layout! Learn more

10-Day Weather Forecast

Advertisements
Track Severe Weather on mobile